createdAt,value
2023-05-08T00:00:42.238Z,102790.16
2023-05-08T00:03:11.486Z,102774.31
2023-05-08T00:05:39.457Z,102782.22
2023-05-08T00:08:07.508Z,102780.41
2023-05-08T00:10:35.607Z,102776.53
2023-05-08T00:13:03.571Z,102786.41
2023-05-08T00:15:31.607Z,102780.97
2023-05-08T00:17:59.654Z,102697.13
2023-05-08T00:20:29.103Z,102786.03
2023-05-08T00:22:58.032Z,102778.91
2023-05-08T00:25:26.153Z,102782.28
2023-05-08T00:27:54.249Z,102790.09
2023-05-08T00:30:22.544Z,102789.19
2023-05-08T00:32:50.458Z,102780.47
2023-05-08T00:35:18.535Z,102771.94
2023-05-08T00:37:47.915Z,102790.75
2023-05-08T00:40:16.213Z,102789.84
2023-05-08T00:42:44.208Z,102791.44
2023-05-08T00:45:13.345Z,102774.28
2023-05-08T00:47:42.391Z,102787.13
2023-05-08T00:50:12.138Z,102788.81
2023-05-08T00:52:41.450Z,102782.72
2023-05-08T00:55:11.108Z,102787.78
2023-05-08T00:57:40.041Z,102786.75
2023-05-08T01:00:09.256Z,102790.28
2023-05-08T01:02:37.577Z,102796.38
2023-05-08T01:05:07.801Z,102799.78
2023-05-08T01:07:36.025Z,102799.09
2023-05-08T01:10:03.985Z,102803.41
2023-05-08T01:12:48.214Z,102788.47
2023-05-08T01:15:19.691Z,102796.63
2023-05-08T01:17:58.779Z,102800.00
2023-05-08T01:20:40.895Z,102783.66
2023-05-08T01:23:45.407Z,102797.41
2023-05-08T01:26:32.847Z,102780.94
2023-05-08T01:29:40.241Z,102805.22
2023-05-08T01:32:19.806Z,102796.91
2023-05-08T01:35:01.844Z,102798.19
2023-05-08T01:37:38.682Z,102808.59
2023-05-08T01:40:14.203Z,102819.81
2023-05-08T01:42:50.368Z,102811.88
2023-05-08T01:45:23.621Z,102786.69
2023-05-08T01:48:01.771Z,102807.44
2023-05-08T01:50:34.770Z,102780.75
2023-05-08T01:53:10.871Z,102809.94
2023-05-08T01:55:42.332Z,102801.63
2023-05-08T01:58:13.257Z,102812.41
2023-05-08T02:00:42.677Z,102813.31
2023-05-08T02:03:14.974Z,102818.41
2023-05-08T02:05:45.352Z,102818.28
2023-05-08T02:08:14.282Z,102818.16
2023-05-08T02:10:43.604Z,102818.03
2023-05-08T02:13:12.782Z,102806.09
2023-05-08T02:15:43.144Z,102764.47
2023-05-08T02:18:14.378Z,102819.47
2023-05-08T02:20:43.321Z,102811.53
2023-05-08T02:23:13.838Z,102800.44
2023-05-08T02:25:43.879Z,102808.56
2023-05-08T02:28:12.576Z,102762.81
2023-05-08T02:30:41.508Z,102810.06
2023-05-08T02:33:10.932Z,102802.53
2023-05-08T02:35:42.191Z,102818.50
2023-05-08T02:38:11.781Z,102813.19
2023-05-08T02:40:45.369Z,102814.88
2023-05-08T02:43:13.694Z,102816.56
2023-05-08T02:45:46.834Z,102808.28
2023-05-08T02:48:21.202Z,102812.94
2023-05-08T02:50:59.219Z,102819.72
2023-05-08T02:53:34.038Z,102813.72
2023-05-08T02:56:06.977Z,102809.19
2023-05-08T02:58:41.776Z,102791.94
2023-05-08T03:01:22.950Z,102808.28
2023-05-08T03:04:01.010Z,102793.75
2023-05-08T03:06:36.394Z,102797.13
2023-05-08T03:09:06.451Z,102811.53
2023-05-08T03:11:41.545Z,102814.13
2023-05-08T03:14:14.286Z,102818.56
2023-05-08T03:16:45.983Z,102679.88
2023-05-08T03:19:23.277Z,102737.84
2023-05-08T03:21:53.184Z,102805.19
2023-05-08T03:24:23.879Z,102819.34
2023-05-08T03:26:52.312Z,102808.56
2023-05-08T03:29:21.463Z,102818.56
2023-05-08T03:31:52.128Z,102794.53
2023-05-08T03:34:22.339Z,102810.88
2023-05-08T03:36:50.385Z,102819.72
2023-05-08T03:39:20.075Z,102825.16
2023-05-08T03:41:48.009Z,102822.69
2023-05-08T03:44:16.646Z,102820.22
2023-05-08T03:46:46.259Z,102816.81
2023-05-08T03:49:16.062Z,102805.03
2023-05-08T03:51:44.494Z,102815.34
2023-05-08T03:54:12.504Z,102808.56
2023-05-08T03:56:41.769Z,102802.34
2023-05-08T03:59:18.580Z,102803.88
2023-05-08T04:01:53.438Z,102813.06
2023-05-08T04:04:40.932Z,102814.22
2023-05-08T04:07:15.124Z,102813.72
2023-05-08T04:09:52.733Z,102813.03
2023-05-08T04:12:27.646Z,102799.09
2023-05-08T04:15:02.550Z,102811.94
2023-05-08T04:17:37.370Z,102810.63
2023-05-08T04:20:08.118Z,102810.06
2023-05-08T04:22:39.780Z,102809.53
2023-05-08T04:25:12.122Z,102775.81
2023-05-08T04:27:43.661Z,102792.88
2023-05-08T04:30:12.621Z,102813.09
2023-05-08T04:32:42.319Z,102823.88
2023-05-08T04:35:13.716Z,102804.97
2023-05-08T04:37:43.450Z,102801.06
2023-05-08T04:40:12.269Z,102792.22
2023-05-08T04:42:43.226Z,102808.81
2023-05-08T04:45:12.165Z,102815.28
2023-05-08T04:47:40.512Z,102802.25
2023-05-08T04:50:09.063Z,102814.53
2023-05-08T04:52:36.909Z,102816.69
2023-05-08T04:55:05.077Z,102744.81
2023-05-08T04:57:33.036Z,102802.22
2023-05-08T05:00:02.289Z,102817.44
2023-05-08T05:02:30.119Z,102823.13
2023-05-08T05:05:01.456Z,102820.19
2023-05-08T05:07:29.362Z,102822.47
2023-05-08T05:09:57.221Z,102819.41
2023-05-08T05:12:25.520Z,102822.59
2023-05-08T05:14:53.369Z,102802.28
2023-05-08T05:17:23.162Z,102819.97
2023-05-08T05:19:53.314Z,102817.84
2023-05-08T05:22:21.362Z,102822.81
2023-05-08T05:24:49.229Z,102816.25
2023-05-08T05:27:19.899Z,102821.22
2023-05-08T05:29:49.055Z,102798.44
2023-05-08T05:32:16.945Z,102790.81
2023-05-08T05:34:46.457Z,102796.81
2023-05-08T05:37:16.633Z,102820.41
2023-05-08T05:39:55.816Z,102823.66
2023-05-08T05:42:24.344Z,102816.50
2023-05-08T05:44:52.176Z,102793.34
2023-05-08T05:47:20.159Z,102799.56
2023-05-08T05:49:49.397Z,102820.47
2023-05-08T05:52:17.231Z,102809.69
2023-05-08T05:54:46.752Z,102815.91
2023-05-08T05:57:15.271Z,102813.13
2023-05-08T05:59:43.526Z,102812.88
2023-05-08T06:02:14.661Z,102813.41
2023-05-08T06:04:42.621Z,102794.91
2023-05-08T06:07:12.126Z,102815.16
2023-05-08T06:09:40.016Z,102806.16
2023-05-08T06:12:08.294Z,102803.75
2023-05-08T06:14:36.238Z,102806.00
2023-05-08T06:17:04.226Z,102807.41
2023-05-08T06:19:32.061Z,102799.97
2023-05-08T06:22:00.053Z,102803.22
2023-05-08T06:24:29.419Z,102801.59
2023-05-08T06:26:57.365Z,102764.28
2023-05-08T06:29:25.401Z,102784.91
2023-05-08T06:31:53.305Z,102801.72
2023-05-08T06:34:21.188Z,102804.03
2023-05-08T06:36:49.076Z,102638.03
2023-05-08T06:39:17.288Z,102795.25
2023-05-08T06:41:48.410Z,102795.84
2023-05-08T06:44:16.552Z,102804.41
2023-05-08T06:46:44.539Z,102806.78
2023-05-08T06:49:12.488Z,102798.69
2023-05-08T06:51:40.529Z,102783.19
2023-05-08T06:54:08.772Z,102629.03
2023-05-08T06:56:37.082Z,102799.72
2023-05-08T06:59:08.852Z,102797.75
2023-05-08T07:01:38.229Z,102796.09
2023-05-08T07:04:06.675Z,102809.31
2023-05-08T07:06:34.832Z,102791.22
2023-05-08T07:09:03.078Z,102786.06
2023-05-08T07:11:31.008Z,102786.75
2023-05-08T07:13:58.867Z,102773.41
2023-05-08T07:16:28.236Z,102776.47
2023-05-08T07:18:56.353Z,102758.88
2023-05-08T07:21:24.241Z,102773.63
2023-05-08T07:23:53.939Z,102763.69
2023-05-08T07:26:22.719Z,102761.19
2023-05-08T07:28:50.883Z,102762.03
2023-05-08T07:31:18.923Z,102742.88
2023-05-08T07:33:48.327Z,102748.34
2023-05-08T07:36:16.372Z,102763.34
2023-05-08T07:38:44.229Z,102757.38
2023-05-08T07:41:12.206Z,102755.31
2023-05-08T07:43:40.145Z,102757.41
2023-05-08T07:46:08.061Z,102750.09
2023-05-08T07:48:36.180Z,102748.56
2023-05-08T07:51:05.837Z,102749.84
2023-05-08T07:53:33.694Z,102726.06
2023-05-08T07:56:01.642Z,102735.09
2023-05-08T07:58:29.626Z,102737.09
2023-05-08T08:00:57.523Z,102740.81
2023-05-08T08:03:25.608Z,102737.97
2023-05-08T08:05:53.653Z,102717.56
2023-05-08T08:08:22.926Z,102720.75
2023-05-08T08:10:51.212Z,102724.63
2023-05-08T08:13:19.148Z,102726.84
2023-05-08T08:15:47.119Z,102714.28
2023-05-08T08:18:15.252Z,102714.25
2023-05-08T08:20:43.170Z,102718.31
2023-05-08T08:23:11.054Z,102712.88
2023-05-08T08:25:40.438Z,102707.38
2023-05-08T08:28:08.382Z,102650.28
2023-05-08T08:30:36.209Z,102692.47
2023-05-08T08:33:06.125Z,102676.22
2023-05-08T08:35:34.367Z,102703.78
2023-05-08T08:38:02.414Z,102700.56
2023-05-08T08:40:30.439Z,102697.06
2023-05-08T08:43:00.472Z,102661.44
2023-05-08T08:45:28.298Z,102692.25
2023-05-08T08:47:58.414Z,102694.25
2023-05-08T08:50:27.938Z,102693.97
2023-05-08T08:53:02.695Z,102699.63
2023-05-08T08:55:32.150Z,102684.78
2023-05-08T08:58:13.972Z,102690.72
2023-05-08T09:00:42.814Z,102690.00
2023-05-08T09:03:11.202Z,102683.69
2023-05-08T09:05:39.477Z,102684.38
2023-05-08T09:08:07.828Z,102681.47
2023-05-08T09:10:37.181Z,102421.50
2023-05-08T09:13:06.546Z,102674.81
2023-05-08T09:15:34.725Z,102689.16
2023-05-08T09:18:03.539Z,102684.84
2023-05-08T09:20:31.863Z,102692.13
2023-05-08T09:23:02.914Z,102684.97
2023-05-08T09:25:43.004Z,102678.34
2023-05-08T09:28:19.489Z,102676.13
2023-05-08T09:30:51.894Z,102668.31
2023-05-08T09:33:19.784Z,102676.03
2023-05-08T09:35:48.866Z,102608.72
2023-05-08T09:38:37.179Z,102661.44
2023-05-08T09:41:09.840Z,102657.72
2023-05-08T09:43:39.706Z,102656.44
2023-05-08T09:46:24.836Z,102652.53
2023-05-08T09:48:53.936Z,102643.47
2023-05-08T09:51:22.589Z,102643.59
2023-05-08T09:53:53.344Z,102645.22
2023-05-08T09:56:35.589Z,102640.44
2023-05-08T09:59:06.646Z,102652.22
2023-05-08T10:01:36.793Z,102590.06
2023-05-08T10:04:06.071Z,102646.56
2023-05-08T10:06:34.699Z,102636.34
2023-05-08T10:09:10.206Z,102650.53
2023-05-08T10:11:38.384Z,102637.69
2023-05-08T10:14:07.741Z,102641.94
2023-05-08T10:16:42.807Z,102639.09
2023-05-08T10:19:15.061Z,102635.59
2023-05-08T10:21:47.231Z,102637.63
2023-05-08T10:24:17.699Z,102645.22
2023-05-08T10:27:05.731Z,102632.84
2023-05-08T10:29:45.412Z,102551.19
2023-05-08T10:32:14.556Z,102593.91
2023-05-08T10:34:44.754Z,102637.41
2023-05-08T10:37:13.760Z,102625.53
2023-05-08T10:39:43.087Z,102636.94
2023-05-08T10:42:11.739Z,102636.00
2023-05-08T10:44:41.394Z,102625.94
2023-05-08T10:47:18.960Z,102618.38
2023-05-08T10:49:55.663Z,102621.94
2023-05-08T10:52:30.726Z,102609.69
2023-05-08T10:55:17.170Z,102615.31
2023-05-08T10:58:07.109Z,102612.84
2023-05-08T11:01:14.970Z,102594.03
2023-05-08T11:03:46.122Z,102610.22
2023-05-08T11:06:15.305Z,102602.84
2023-05-08T11:08:54.806Z,102605.66
2023-05-08T11:11:31.579Z,102601.22
2023-05-08T11:14:15.238Z,102598.19
2023-05-08T11:17:09.954Z,102588.53
2023-05-08T11:19:39.148Z,102603.78
2023-05-08T11:22:17.420Z,102596.56
2023-05-08T11:24:57.980Z,102587.03
2023-05-08T11:27:40.778Z,102589.00
2023-05-08T11:30:23.333Z,102547.94
2023-05-08T11:32:59.600Z,102578.22
2023-05-08T11:35:48.280Z,102573.66
2023-05-08T11:38:20.364Z,102589.53
2023-05-08T11:40:50.592Z,102537.72
2023-05-08T11:43:33.836Z,102466.53
2023-05-08T11:46:04.330Z,102571.09
2023-05-08T11:48:34.319Z,102578.09
2023-05-08T11:51:02.762Z,102573.63
2023-05-08T11:53:31.562Z,102551.81
2023-05-08T11:56:00.559Z,102520.63
2023-05-08T11:58:28.407Z,102568.84
2023-05-08T12:00:56.640Z,102562.19
2023-05-08T12:03:26.201Z,102569.19
2023-05-08T12:05:58.695Z,102563.78
2023-05-08T12:08:26.824Z,102566.75
2023-05-08T12:10:56.684Z,102433.84
2023-05-08T12:13:26.378Z,102569.22
2023-05-08T12:15:56.143Z,102555.31
2023-05-08T12:18:26.292Z,102556.25
2023-05-08T12:20:58.451Z,102559.16
2023-05-08T12:23:27.389Z,102556.75
2023-05-08T12:25:55.754Z,102531.88
2023-05-08T12:28:24.143Z,102563.13
2023-05-08T12:30:52.333Z,102552.44
2023-05-08T12:33:21.292Z,102553.16
2023-05-08T12:35:49.435Z,102555.06
2023-05-08T12:38:18.906Z,102547.94
2023-05-08T12:40:49.201Z,102547.03
2023-05-08T12:43:17.577Z,102546.16
2023-05-08T12:45:45.818Z,102542.53
2023-05-08T12:48:15.728Z,102545.19
2023-05-08T12:50:45.237Z,102551.34
2023-05-08T12:53:14.216Z,102544.22
2023-05-08T12:55:53.540Z,102536.03
2023-05-08T12:58:25.208Z,102541.56
2023-05-08T13:00:54.004Z,102527.41
2023-05-08T13:03:26.748Z,102525.41
2023-05-08T13:05:55.972Z,102522.78
2023-05-08T13:08:31.102Z,102528.16
2023-05-08T13:11:01.349Z,102515.59
2023-05-08T13:13:32.799Z,102507.56
2023-05-08T13:16:04.576Z,102516.66
2023-05-08T13:18:33.412Z,102499.69
2023-05-08T13:21:02.317Z,102509.47
2023-05-08T13:23:30.225Z,102498.81
2023-05-08T13:25:58.302Z,102512.16
2023-05-08T13:28:27.630Z,102511.94
2023-05-08T13:30:55.469Z,102512.97
2023-05-08T13:33:23.376Z,102513.94
2023-05-08T13:35:51.352Z,102497.94
2023-05-08T13:38:19.262Z,102494.31
2023-05-08T13:40:47.188Z,102514.81
2023-05-08T13:43:15.254Z,102502.34
2023-05-08T13:45:44.508Z,102512.22
2023-05-08T13:48:12.585Z,102512.22
2023-05-08T13:50:40.768Z,102510.41
2023-05-08T13:53:08.635Z,102503.13
2023-05-08T13:55:38.153Z,102477.22
2023-05-08T13:58:06.169Z,102505.72
2023-05-08T14:00:34.803Z,102494.09
2023-05-08T14:03:04.492Z,102507.47
2023-05-08T14:05:32.475Z,102504.00
2023-05-08T14:08:00.325Z,102510.34
2023-05-08T14:10:28.254Z,102498.69
2023-05-08T14:12:56.185Z,102385.44
2023-05-08T14:15:29.257Z,102508.63
2023-05-08T14:18:05.980Z,102492.53
2023-05-08T14:20:34.030Z,102505.03
2023-05-08T14:23:01.874Z,102505.03
2023-05-08T14:25:29.793Z,102494.38
2023-05-08T14:27:57.641Z,102500.63
2023-05-08T14:30:25.598Z,102497.03
2023-05-08T14:32:53.737Z,102498.81
2023-05-08T14:35:23.037Z,102496.09
2023-05-08T14:37:50.856Z,102380.94
2023-05-08T14:40:19.103Z,102491.47
2023-05-08T14:42:46.951Z,102475.16
2023-05-08T14:45:14.993Z,102469.91
2023-05-08T14:47:43.390Z,102489.50
2023-05-08T14:50:12.291Z,102491.50
2023-05-08T14:52:41.561Z,102492.34
2023-05-08T14:55:10.995Z,102491.41
2023-05-08T14:57:39.031Z,102484.34
2023-05-08T15:00:08.337Z,102488.72
2023-05-08T15:02:36.375Z,102481.53
2023-05-08T15:07:54.260Z,102361.91
2023-05-08T15:10:22.310Z,102480.34
2023-05-08T15:12:50.494Z,102468.75
2023-05-08T15:15:18.631Z,102490.50
2023-05-08T15:17:46.655Z,102483.59
2023-05-08T15:20:14.562Z,102489.88
2023-05-08T15:22:42.527Z,102486.19
2023-05-08T15:25:13.530Z,102437.16
2023-05-08T15:27:42.009Z,102481.88
2023-05-08T15:30:10.945Z,102478.25
2023-05-08T15:32:40.317Z,102482.63
2023-05-08T15:35:09.158Z,102476.50
2023-05-08T15:37:38.199Z,102490.75
2023-05-08T15:40:07.273Z,102481.78
2023-05-08T15:42:36.877Z,102471.97
2023-05-08T15:45:07.551Z,102468.38
2023-05-08T15:47:35.405Z,102445.19
2023-05-08T15:50:03.722Z,102453.25
2023-05-08T15:52:31.826Z,102430.06
2023-05-08T15:54:59.659Z,102470.22
2023-05-08T15:57:28.073Z,102470.22
2023-05-08T15:59:57.566Z,102389.78
2023-05-08T16:02:25.504Z,102465.47
2023-05-08T16:04:53.434Z,102473.41
2023-05-08T16:07:22.857Z,102463.47
2023-05-08T16:09:50.696Z,102463.47
2023-05-08T16:12:19.857Z,102456.47
2023-05-08T16:14:48.971Z,102451.03
2023-05-08T16:17:18.382Z,102460.66
2023-05-08T16:19:46.208Z,102467.72
2023-05-08T16:22:14.320Z,102412.94
2023-05-08T16:24:42.182Z,102459.44
2023-05-08T16:27:11.411Z,102461.31
2023-05-08T16:29:39.380Z,102447.13
2023-05-08T16:32:07.404Z,102465.06
2023-05-08T16:34:36.838Z,102458.00
2023-05-08T16:37:04.988Z,102458.00
2023-05-08T16:39:32.800Z,102434.81
2023-05-08T16:42:00.656Z,102456.16
2023-05-08T16:44:29.833Z,102439.19
2023-05-08T16:46:57.692Z,102448.88
2023-05-08T16:49:25.681Z,102447.03
2023-05-08T16:51:57.433Z,102446.50
2023-05-08T16:54:25.334Z,102459.59
2023-05-08T16:56:53.176Z,102444.97
2023-05-08T16:59:21.227Z,102447.59
2023-05-08T17:01:49.081Z,102450.66
2023-05-08T17:04:16.920Z,102445.88
2023-05-08T17:06:44.902Z,102426.09
2023-05-08T17:09:14.185Z,102445.56
2023-05-08T17:11:42.006Z,102451.81
2023-05-08T17:14:10.041Z,102444.78
2023-05-08T17:16:38.702Z,102446.28
2023-05-08T17:19:06.651Z,102442.72
2023-05-08T17:21:35.011Z,102429.59
2023-05-08T17:24:02.950Z,102447.59
2023-05-08T17:26:34.570Z,102445.13
2023-05-08T17:29:02.798Z,102446.66
2023-05-08T17:31:30.736Z,102443.50
2023-05-08T17:33:58.635Z,102424.59
2023-05-08T17:36:26.637Z,102443.59
2023-05-08T17:38:54.432Z,102428.59
2023-05-08T17:41:23.049Z,102441.41
2023-05-08T17:43:53.406Z,102450.75
2023-05-08T17:46:21.466Z,102437.41
2023-05-08T17:48:49.301Z,102435.19
2023-05-08T17:51:17.308Z,102444.59
2023-05-08T17:53:45.238Z,102437.88
2023-05-08T17:56:13.214Z,102444.56
2023-05-08T17:58:43.566Z,102445.22
2023-05-08T18:01:13.990Z,102419.53
2023-05-08T18:03:42.566Z,102458.75
2023-05-08T18:06:11.166Z,102449.47
2023-05-08T18:08:42.026Z,102456.16
2023-05-08T18:11:17.631Z,102450.56
2023-05-08T18:13:46.772Z,102455.53
2023-05-08T18:16:18.706Z,102457.25
2023-05-08T18:18:47.043Z,102419.84
2023-05-08T18:21:15.110Z,102450.13
2023-05-08T18:23:43.213Z,102453.38
2023-05-08T18:26:14.310Z,102452.97
2023-05-08T18:28:42.230Z,102446.72
2023-05-08T18:31:11.009Z,102462.31
2023-05-08T18:33:40.581Z,102466.38
2023-05-08T18:36:08.937Z,102460.56
2023-05-08T18:38:37.026Z,102444.50
2023-05-08T18:41:06.243Z,102469.91
2023-05-08T18:43:34.776Z,102288.53
2023-05-08T18:46:09.332Z,102439.59
2023-05-08T18:48:37.605Z,102455.66
2023-05-08T18:51:07.230Z,102463.72
2023-05-08T18:53:38.526Z,102375.88
2023-05-08T18:56:07.536Z,102480.19
2023-05-08T18:58:35.631Z,102478.06
2023-05-08T19:01:03.954Z,102456.03
2023-05-08T19:03:32.477Z,102484.44
2023-05-08T19:06:00.588Z,102475.34
2023-05-08T19:08:30.075Z,102475.25
2023-05-08T19:10:58.592Z,102459.56
2023-05-08T19:13:27.697Z,102482.22
2023-05-08T19:15:56.419Z,102481.84
2023-05-08T19:18:25.148Z,102449.22
2023-05-08T19:20:53.000Z,102483.84
2023-05-08T19:23:20.861Z,102478.28
2023-05-08T19:25:50.250Z,102458.19
2023-05-08T19:28:18.064Z,102463.63
2023-05-08T19:30:45.912Z,102470.38
2023-05-08T19:33:13.918Z,102473.50
2023-05-08T19:35:41.771Z,102477.44
2023-05-08T19:38:09.615Z,102473.66
2023-05-08T19:40:51.915Z,102467.09
2023-05-08T19:43:25.462Z,102464.13
2023-05-08T19:45:53.564Z,102465.63
2023-05-08T19:48:21.513Z,102462.53
2023-05-08T19:50:49.637Z,102450.28
2023-05-08T19:53:18.231Z,102466.78
2023-05-08T19:55:46.342Z,102436.41
2023-05-08T19:58:14.186Z,102465.28
2023-05-08T20:00:43.499Z,102475.31
2023-05-08T20:03:11.373Z,102469.81
2023-05-08T20:05:39.240Z,102471.38
2023-05-08T20:08:07.394Z,102467.69
2023-05-08T20:10:35.222Z,102469.13
2023-05-08T20:13:03.581Z,102463.63
2023-05-08T20:15:31.620Z,102465.91
2023-05-08T20:18:00.902Z,102464.50
2023-05-08T20:20:29.759Z,102459.16
2023-05-08T20:22:58.106Z,102445.44
2023-05-08T20:25:25.986Z,102456.75
2023-05-08T20:27:54.634Z,102451.69
2023-05-08T20:30:23.620Z,102454.59
2023-05-08T20:32:51.883Z,102441.22
2023-05-08T20:35:21.378Z,102442.69
2023-05-08T20:37:49.873Z,102440.88
2023-05-08T20:40:17.779Z,102415.34
2023-05-08T20:42:45.701Z,102452.78
2023-05-08T20:45:15.153Z,102436.81
2023-05-08T20:47:44.011Z,102441.97
2023-05-08T20:50:12.237Z,102423.00
2023-05-08T20:52:42.571Z,102443.50
2023-05-08T20:55:11.260Z,102407.50
2023-05-08T20:57:41.553Z,102442.50
2023-05-08T21:00:10.453Z,102420.13
2023-05-08T21:02:41.258Z,102430.69
2023-05-08T21:05:11.344Z,102428.63
2023-05-08T21:07:42.591Z,102432.41
2023-05-08T21:10:11.242Z,102430.59
2023-05-08T21:12:39.891Z,102428.72
2023-05-08T21:15:09.239Z,102425.91
2023-05-08T21:17:37.173Z,102425.72
2023-05-08T21:20:05.478Z,102431.69
2023-05-08T21:22:34.561Z,102431.59
2023-05-08T21:25:03.899Z,102429.69
2023-05-08T21:27:31.746Z,102423.47
2023-05-08T21:29:59.677Z,102412.56
2023-05-08T21:32:27.620Z,102420.50
2023-05-08T21:34:56.176Z,102418.50
2023-05-08T21:37:24.087Z,102396.75
2023-05-08T21:39:52.018Z,102401.97
2023-05-08T21:42:21.273Z,102417.22
2023-05-08T21:44:49.232Z,102427.59
2023-05-08T21:47:17.185Z,102422.00
2023-05-08T21:49:45.004Z,102415.31
2023-05-08T21:52:12.912Z,102427.69
2023-05-08T21:54:40.894Z,102423.97
2023-05-08T21:57:10.003Z,102409.06
2023-05-08T21:59:39.342Z,102405.34
2023-05-08T22:02:07.383Z,102428.63
2023-05-08T22:04:35.324Z,102425.47
2023-05-08T22:07:03.304Z,102420.31
2023-05-08T22:09:31.287Z,102432.50
2023-05-08T22:11:59.265Z,102427.88
2023-05-08T22:14:27.227Z,102424.28
2023-05-08T22:16:56.524Z,102423.91
2023-05-08T22:19:24.335Z,102421.91
2023-05-08T22:21:52.321Z,102427.03
2023-05-08T22:24:20.268Z,102424.41
2023-05-08T22:26:48.084Z,102399.91
2023-05-08T22:29:17.019Z,102420.50
2023-05-08T22:31:45.462Z,102421.28
2023-05-08T22:34:15.016Z,102421.91
2023-05-08T22:36:43.021Z,102417.31
2023-05-08T22:39:11.711Z,102419.63
2023-05-08T22:41:39.688Z,102416.00
2023-05-08T22:44:07.999Z,102410.69
2023-05-08T22:46:36.926Z,102400.56
2023-05-08T22:49:05.055Z,102415.81
2023-05-08T22:51:34.481Z,102420.03
2023-05-08T22:54:02.376Z,102414.72
2023-05-08T22:56:30.271Z,102401.88
2023-05-08T22:58:58.191Z,102403.88
2023-05-08T23:01:26.168Z,102417.16
2023-05-08T23:03:56.608Z,102403.88
2023-05-08T23:06:24.611Z,102350.56
2023-05-08T23:08:53.944Z,102390.25
2023-05-08T23:11:22.365Z,102397.38
2023-05-08T23:13:50.254Z,102399.88
2023-05-08T23:16:18.274Z,102403.31
2023-05-08T23:18:46.428Z,102396.19
2023-05-08T23:21:14.566Z,102396.88
2023-05-08T23:23:42.568Z,102394.19
2023-05-08T23:26:11.767Z,102389.75
2023-05-08T23:28:39.690Z,102385.44
2023-05-08T23:31:07.693Z,102388.06
2023-05-08T23:33:35.570Z,102393.06
2023-05-08T23:36:03.605Z,102393.88
2023-05-08T23:38:32.831Z,102390.81
2023-05-08T23:41:02.127Z,102382.28
2023-05-08T23:43:31.465Z,102360.00
2023-05-08T23:45:59.407Z,102365.81
2023-05-08T23:48:27.550Z,102366.44
2023-05-08T23:50:55.660Z,102381.88
2023-05-08T23:53:23.644Z,102220.09
2023-05-08T23:55:52.381Z,102384.50
2023-05-08T23:58:20.428Z,102322.91
